createdAt,value
2022-10-13T00:04:32.739Z,10.25
2022-10-13T00:09:41.731Z,10.25
2022-10-13T00:14:50.698Z,10.25
2022-10-13T00:19:59.840Z,10.19
2022-10-13T00:25:08.858Z,10.19
2022-10-13T00:35:15.854Z,10.06
2022-10-13T00:40:25.072Z,10
2022-10-13T00:45:33.807Z,9.94
2022-10-13T00:50:42.914Z,9.94
2022-10-13T01:01:00.742Z,9.75
2022-10-13T01:06:09.822Z,9.75
2022-10-13T01:11:18.871Z,9.63
2022-10-13T01:16:27.815Z,9.63
2022-10-13T01:26:35.052Z,9.63
2022-10-13T01:31:44.176Z,9.69
2022-10-13T01:36:53.325Z,9.75
2022-10-13T01:42:02.439Z,9.75
2022-10-13T01:47:11.414Z,9.75
2022-10-13T01:52:20.605Z,9.75
2022-10-13T01:57:29.351Z,9.75
2022-10-13T02:02:38.302Z,9.69
2022-10-13T02:07:47.321Z,9.56
2022-10-13T02:12:56.242Z,9.44
2022-10-13T02:18:05.078Z,9.31
2022-10-13T02:23:14.045Z,9.25
2022-10-13T02:28:23.128Z,9.13
2022-10-13T02:33:32.133Z,9.13
2022-10-13T02:38:41.179Z,9.19
2022-10-13T02:43:50.297Z,9.5
2022-10-13T02:48:59.320Z,9.81
2022-10-13T02:54:08.298Z,10.13
2022-10-13T03:04:15.759Z,10.44
2022-10-13T03:09:24.785Z,10.5
2022-10-13T03:14:33.811Z,10.56
2022-10-13T03:19:42.778Z,10.56
2022-10-13T03:24:51.791Z,10.56
2022-10-13T03:30:00.791Z,10.5
2022-10-13T03:35:09.848Z,10.56
2022-10-13T03:40:18.830Z,10.63
2022-10-13T03:45:28.009Z,10.69
2022-10-13T03:50:37.065Z,10.75
2022-10-13T03:55:46.110Z,10.81
2022-10-13T04:00:54.990Z,10.81
2022-10-13T04:06:03.995Z,10.94
2022-10-13T04:11:12.822Z,10.94
2022-10-13T04:16:21.904Z,10.94
2022-10-13T04:21:30.928Z,10.88
2022-10-13T04:26:40.076Z,10.88
2022-10-13T04:31:49.047Z,10.94
2022-10-13T04:36:57.986Z,10.94
2022-10-13T04:42:06.995Z,11
2022-10-13T04:47:15.982Z,11
2022-10-13T04:57:33.994Z,10.88
2022-10-13T05:02:42.728Z,10.94
2022-10-13T05:07:51.764Z,10.88
2022-10-13T05:13:00.934Z,10.88
2022-10-13T05:18:09.943Z,10.88
2022-10-13T05:23:18.975Z,10.88
2022-10-13T05:28:30.915Z,10.81
2022-10-13T05:33:39.857Z,10.81
2022-10-13T05:38:48.899Z,10.75
2022-10-13T05:43:57.891Z,10.75
2022-10-13T05:49:07.010Z,10.75
2022-10-13T05:54:16.039Z,10.69
2022-10-13T06:04:33.991Z,10.69
2022-10-13T06:09:42.990Z,10.75
2022-10-13T06:14:52.157Z,10.75
2022-10-13T06:20:01.148Z,10.69
2022-10-13T06:25:10.088Z,10.63
2022-10-13T06:30:19.202Z,10.56
2022-10-13T06:35:28.381Z,10.56
2022-10-13T06:40:37.366Z,10.69
2022-10-13T06:45:46.662Z,10.81
2022-10-13T06:50:55.807Z,10.88
2022-10-13T06:56:04.886Z,10.94
2022-10-13T07:11:15.252Z,11.19
2022-10-13T07:21:28.674Z,11.5
2022-10-13T07:26:37.699Z,11.69
2022-10-13T07:31:46.720Z,11.81
2022-10-13T07:36:55.826Z,11.88
2022-10-13T07:42:04.941Z,11.81
2022-10-13T07:47:13.868Z,11.94
2022-10-13T07:52:23.162Z,11.88
2022-10-13T07:57:31.724Z,12.06
2022-10-13T08:02:41.034Z,12.25
2022-10-13T08:07:52.377Z,12.63
2022-10-13T08:12:59.549Z,12.81
2022-10-13T08:18:08.601Z,13
2022-10-13T08:23:17.819Z,13.13
2022-10-13T08:28:29.980Z,13.19
2022-10-13T08:33:38.880Z,13.19
2022-10-13T08:38:47.846Z,13.19
2022-10-13T08:44:33.905Z,13.31
2022-10-13T08:49:06.003Z,13.38
2022-10-13T08:54:14.799Z,13.44
2022-10-13T08:59:23.640Z,13.31
2022-10-13T09:04:32.778Z,13.13
2022-10-13T09:09:41.724Z,12.94
2022-10-13T09:14:50.622Z,12.88
2022-10-13T09:19:59.659Z,12.81
2022-10-13T09:25:08.790Z,12.94
2022-10-13T09:30:17.768Z,13.19
2022-10-13T09:35:26.717Z,13.31
2022-10-13T09:40:35.901Z,13.44
2022-10-13T09:50:43.214Z,13.62
2022-10-13T09:55:52.309Z,13.62
2022-10-13T10:01:01.212Z,13.62
2022-10-13T10:11:19.184Z,13.69
2022-10-13T10:16:28.150Z,13.56
2022-10-13T10:21:37.047Z,13.44
2022-10-13T10:26:46.102Z,13.5
2022-10-13T10:31:55.056Z,13.5
2022-10-13T10:37:04.144Z,13.5
2022-10-13T10:42:13.094Z,13.56
2022-10-13T10:52:31.309Z,13.88
2022-10-13T10:57:40.249Z,14.06
2022-10-13T11:02:49.594Z,14.06
2022-10-13T11:07:59.065Z,14.13
2022-10-13T11:13:08.241Z,14.19
2022-10-13T11:18:21.142Z,14.31
2022-10-13T11:28:35.457Z,14.87
2022-10-13T11:38:53.724Z,15.5
2022-10-13T11:49:11.943Z,16.25
2022-10-13T11:54:20.910Z,16.31
2022-10-13T11:59:30.152Z,16.69
2022-10-13T12:04:42.755Z,16.56
2022-10-13T12:14:58.577Z,16.62
2022-10-13T12:20:06.014Z,16.44
2022-10-13T12:25:14.816Z,16.44
2022-10-13T12:30:23.745Z,16.31
2022-10-13T12:35:32.993Z,16.25
2022-10-13T12:40:41.774Z,16.31
2022-10-13T12:45:50.703Z,16.19
2022-10-13T12:56:08.887Z,16.12
2022-10-13T13:01:17.995Z,16
2022-10-13T13:06:26.948Z,15.81
2022-10-13T13:11:35.981Z,15.88
2022-10-13T13:16:45.089Z,16
2022-10-13T13:21:54.025Z,16
2022-10-13T13:27:02.988Z,15.94
2022-10-13T13:32:12.011Z,15.88
2022-10-13T13:37:21.513Z,15.88
2022-10-13T13:42:30.069Z,15.81
2022-10-13T13:47:39.104Z,15.88
2022-10-13T13:52:48.107Z,15.94
2022-10-13T13:57:57.292Z,16.06
2022-10-13T14:03:06.553Z,16.5
2022-10-13T14:08:15.882Z,16.81
2022-10-13T14:13:27.923Z,16.94
2022-10-13T14:18:37.093Z,16.87
2022-10-13T14:23:45.895Z,16.62
2022-10-13T14:28:54.710Z,16.19
2022-10-13T14:34:03.487Z,16.06
2022-10-13T14:39:12.626Z,15.94
2022-10-13T14:44:21.533Z,15.88
2022-10-13T14:49:30.402Z,15.88
2022-10-13T14:59:48.678Z,15.75
2022-10-13T15:14:57.603Z,15.63
2022-10-13T15:20:09.420Z,15.56
2022-10-13T15:25:18.403Z,15.56
2022-10-13T15:30:27.559Z,15.56
2022-10-13T15:35:36.659Z,15.56
2022-10-13T15:40:45.767Z,15.44
2022-10-13T15:45:54.689Z,15.38
2022-10-13T15:51:03.776Z,15.38
2022-10-13T15:56:12.630Z,15.25
2022-10-13T16:01:21.610Z,15.19
2022-10-13T16:06:30.411Z,15.13
2022-10-13T16:11:39.359Z,15.06
2022-10-13T16:16:48.226Z,15
2022-10-13T16:21:57.165Z,15
2022-10-13T16:27:06.156Z,14.87
2022-10-13T16:32:15.097Z,14.75
2022-10-13T16:37:24.498Z,14.69
2022-10-13T16:42:33.209Z,14.56
2022-10-13T16:47:42.244Z,14.56
2022-10-13T16:58:00.158Z,14.38
2022-10-13T17:03:09.214Z,14.25
2022-10-13T17:08:18.096Z,14.19
2022-10-13T17:13:27.052Z,14.19
2022-10-13T17:18:36.042Z,14.06
2022-10-13T17:23:48.508Z,14
2022-10-13T17:28:54.020Z,14
2022-10-13T17:39:12.108Z,13.94
2022-10-13T17:44:21.057Z,13.88
2022-10-13T17:49:30.223Z,13.81
2022-10-13T17:54:39.259Z,13.75
2022-10-13T17:59:48.196Z,13.75
2022-10-13T18:04:57.237Z,13.75
2022-10-13T18:10:06.297Z,13.69
2022-10-13T18:15:15.383Z,13.69
2022-10-13T18:20:24.399Z,13.69
2022-10-13T18:25:33.819Z,13.75
2022-10-13T18:30:42.741Z,13.75
2022-10-13T18:35:54.544Z,13.75
2022-10-13T18:41:03.560Z,13.69
2022-10-13T18:46:12.527Z,13.56
2022-10-13T18:51:21.689Z,13.5
2022-10-13T18:56:30.749Z,13.44
2022-10-13T19:06:48.724Z,13.38
2022-10-13T19:11:57.790Z,13.38
2022-10-13T19:22:04.625Z,13.38
2022-10-13T19:27:13.690Z,13.38
2022-10-13T19:32:22.710Z,13.44
2022-10-13T19:37:31.667Z,13.5
2022-10-13T19:42:40.784Z,13.5
2022-10-13T19:47:49.801Z,13.5
2022-10-13T19:52:58.799Z,13.56
2022-10-13T19:58:07.869Z,13.56
2022-10-13T20:03:17.022Z,13.56
2022-10-13T20:08:25.887Z,13.56
2022-10-13T20:13:34.962Z,13.62
2022-10-13T20:18:44.033Z,13.69
2022-10-13T20:23:53.196Z,13.69
2022-10-13T20:29:02.182Z,13.69
2022-10-13T20:34:11.120Z,13.62
2022-10-13T20:39:20.186Z,13.5
2022-10-13T20:44:29.324Z,13.44
2022-10-13T20:49:38.317Z,13.44
2022-10-13T20:54:47.437Z,13.38
2022-10-13T20:59:56.323Z,13.38
2022-10-13T21:05:05.497Z,13.38
2022-10-13T21:10:14.550Z,13.38
2022-10-13T21:15:23.446Z,13.38
2022-10-13T21:20:32.307Z,13.38
2022-10-13T21:25:41.514Z,13.31
2022-10-13T21:30:50.570Z,13.31
2022-10-13T21:35:59.522Z,13.31
2022-10-13T21:41:08.503Z,13.25
2022-10-13T21:46:17.641Z,13.19
2022-10-13T21:51:26.660Z,13.19
2022-10-13T21:56:35.532Z,13.19
2022-10-13T22:01:44.484Z,13.19
2022-10-13T22:06:53.594Z,13.19
2022-10-13T22:12:02.652Z,13.19
2022-10-13T22:17:11.667Z,13.19
2022-10-13T22:22:20.656Z,13.19
2022-10-13T22:27:29.708Z,13.19
2022-10-13T22:32:38.698Z,13.13
2022-10-13T22:37:47.542Z,13.13
2022-10-13T22:42:56.561Z,13.13
2022-10-13T22:48:05.671Z,13.13
2022-10-13T22:53:14.550Z,13.13
2022-10-13T22:58:23.681Z,13.13
2022-10-13T23:03:32.807Z,13.13
2022-10-13T23:08:41.737Z,13.06
2022-10-13T23:18:49.346Z,13.13
2022-10-13T23:23:58.275Z,13.13
2022-10-13T23:29:07.321Z,13.13
2022-10-13T23:34:16.332Z,13.13
2022-10-13T23:39:25.196Z,13.06
2022-10-13T23:44:34.054Z,13
2022-10-13T23:49:43.130Z,13
2022-10-13T23:54:52.067Z,12.94
